sensor_id;sensor_type;location;lat;lon;timestamp;temperature;humidity
42907;DHT22;28552;51.146;6.576;2023-12-20T00:02:21;7.50;99.90
42907;DHT22;28552;51.146;6.576;2023-12-20T00:05:22;7.50;99.90
42907;DHT22;28552;51.146;6.576;2023-12-20T00:08:22;7.40;99.90
42907;DHT22;28552;51.146;6.576;2023-12-20T00:11:23;7.40;99.90
42907;DHT22;28552;51.146;6.576;2023-12-20T00:14:23;7.40;99.90
42907;DHT22;28552;51.146;6.576;2023-12-20T00:17:24;7.30;99.90
42907;DHT22;28552;51.146;6.576;2023-12-20T00:20:24;7.20;99.90
42907;DHT22;28552;51.146;6.576;2023-12-20T00:23:25;7.10;99.90
42907;DHT22;28552;51.146;6.576;2023-12-20T00:26:25;7.00;99.90
42907;DHT22;28552;51.146;6.576;2023-12-20T00:29:28;7.00;99.90
42907;DHT22;28552;51.146;6.576;2023-12-20T00:32:28;6.90;99.90
42907;DHT22;28552;51.146;6.576;2023-12-20T00:35:29;6.90;99.90
42907;DHT22;28552;51.146;6.576;2023-12-20T00:38:29;6.90;99.90
42907;DHT22;28552;51.146;6.576;2023-12-20T00:41:30;6.90;99.90
42907;DHT22;28552;51.146;6.576;2023-12-20T00:44:30;6.90;99.90
42907;DHT22;28552;51.146;6.576;2023-12-20T00:47:31;6.90;99.90
42907;DHT22;28552;51.146;6.576;2023-12-20T00:50:31;6.90;99.90
42907;DHT22;28552;51.146;6.576;2023-12-20T00:53:32;6.90;99.90
42907;DHT22;28552;51.146;6.576;2023-12-20T00:56:33;7.00;99.90
42907;DHT22;28552;51.146;6.576;2023-12-20T00:59:33;7.00;99.90
42907;DHT22;28552;51.146;6.576;2023-12-20T01:02:33;6.90;99.90
42907;DHT22;28552;51.146;6.576;2023-12-20T01:05:34;6.90;99.90
42907;DHT22;28552;51.146;6.576;2023-12-20T01:08:34;6.80;99.90
42907;DHT22;28552;51.146;6.576;2023-12-20T01:11:35;6.80;99.90
42907;DHT22;28552;51.146;6.576;2023-12-20T01:14:36;6.80;99.90
42907;DHT22;28552;51.146;6.576;2023-12-20T01:17:36;6.80;99.90
42907;DHT22;28552;51.146;6.576;2023-12-20T01:20:37;6.70;99.90
42907;DHT22;28552;51.146;6.576;2023-12-20T01:23:37;6.70;99.90
42907;DHT22;28552;51.146;6.576;2023-12-20T01:26:38;6.70;99.90
42907;DHT22;28552;51.146;6.576;2023-12-20T01:29:38;6.70;99.90
42907;DHT22;28552;51.146;6.576;2023-12-20T01:32:39;6.70;99.90
42907;DHT22;28552;51.146;6.576;2023-12-20T01:35:39;6.60;99.90
42907;DHT22;28552;51.146;6.576;2023-12-20T01:38:40;6.60;99.90
42907;DHT22;28552;51.146;6.576;2023-12-20T01:41:40;6.50;99.90
42907;DHT22;28552;51.146;6.576;2023-12-20T01:44:41;6.40;99.90
42907;DHT22;28552;51.146;6.576;2023-12-20T01:47:41;6.30;99.90
42907;DHT22;28552;51.146;6.576;2023-12-20T01:50:44;6.20;99.90
42907;DHT22;28552;51.146;6.576;2023-12-20T01:53:46;6.10;99.90
42907;DHT22;28552;51.146;6.576;2023-12-20T01:56:47;6.00;99.90
42907;DHT22;28552;51.146;6.576;2023-12-20T01:59:49;5.90;99.90
42907;DHT22;28552;51.146;6.576;2023-12-20T02:02:50;5.80;99.90
42907;DHT22;28552;51.146;6.576;2023-12-20T02:05:53;5.80;99.90
42907;DHT22;28552;51.146;6.576;2023-12-20T02:08:53;5.70;99.90
42907;DHT22;28552;51.146;6.576;2023-12-20T02:11:54;5.60;99.90
42907;DHT22;28552;51.146;6.576;2023-12-20T02:14:54;5.60;99.90
42907;DHT22;28552;51.146;6.576;2023-12-20T02:17:55;5.60;99.90
42907;DHT22;28552;51.146;6.576;2023-12-20T02:20:56;5.60;99.90
42907;DHT22;28552;51.146;6.576;2023-12-20T02:23:57;5.70;99.90
42907;DHT22;28552;51.146;6.576;2023-12-20T02:26:57;5.70;99.90
42907;DHT22;28552;51.146;6.576;2023-12-20T02:29:58;5.80;99.90
42907;DHT22;28552;51.146;6.576;2023-12-20T02:33:00;5.80;99.90
42907;DHT22;28552;51.146;6.576;2023-12-20T02:36:01;5.80;99.90
42907;DHT22;28552;51.146;6.576;2023-12-20T02:39:02;5.70;99.90
42907;DHT22;28552;51.146;6.576;2023-12-20T02:42:02;5.60;99.90
42907;DHT22;28552;51.146;6.576;2023-12-20T02:45:03;5.60;99.90
42907;DHT22;28552;51.146;6.576;2023-12-20T02:48:05;5.70;99.90
42907;DHT22;28552;51.146;6.576;2023-12-20T02:51:05;5.70;99.90
42907;DHT22;28552;51.146;6.576;2023-12-20T02:54:06;5.80;99.90
42907;DHT22;28552;51.146;6.576;2023-12-20T02:57:06;5.80;99.90
42907;DHT22;28552;51.146;6.576;2023-12-20T03:00:09;5.80;99.90
42907;DHT22;28552;51.146;6.576;2023-12-20T03:03:10;5.70;99.90
42907;DHT22;28552;51.146;6.576;2023-12-20T03:06:11;5.60;99.90
42907;DHT22;28552;51.146;6.576;2023-12-20T03:09:11;5.50;99.90
42907;DHT22;28552;51.146;6.576;2023-12-20T03:12:12;5.50;99.90
42907;DHT22;28552;51.146;6.576;2023-12-20T03:15:13;5.50;99.90
42907;DHT22;28552;51.146;6.576;2023-12-20T03:18:13;5.50;99.90
42907;DHT22;28552;51.146;6.576;2023-12-20T03:21:14;5.50;99.90
42907;DHT22;28552;51.146;6.576;2023-12-20T03:24:14;5.40;99.90
42907;DHT22;28552;51.146;6.576;2023-12-20T03:27:15;5.50;99.90
42907;DHT22;28552;51.146;6.576;2023-12-20T03:30:15;5.50;99.90
42907;DHT22;28552;51.146;6.576;2023-12-20T03:33:16;5.40;99.90
42907;DHT22;28552;51.146;6.576;2023-12-20T03:36:16;5.40;99.90
42907;DHT22;28552;51.146;6.576;2023-12-20T03:39:17;5.30;99.90
42907;DHT22;28552;51.146;6.576;2023-12-20T03:42:17;5.30;99.90
42907;DHT22;28552;51.146;6.576;2023-12-20T03:45:18;5.30;99.90
42907;DHT22;28552;51.146;6.576;2023-12-20T03:48:18;5.30;99.90
42907;DHT22;28552;51.146;6.576;2023-12-20T03:51:19;5.40;99.90
42907;DHT22;28552;51.146;6.576;2023-12-20T03:54:19;5.40;99.90
42907;DHT22;28552;51.146;6.576;2023-12-20T03:57:20;5.40;99.90
42907;DHT22;28552;51.146;6.576;2023-12-20T04:00:20;5.40;99.90
42907;DHT22;28552;51.146;6.576;2023-12-20T04:03:21;5.40;99.90
42907;DHT22;28552;51.146;6.576;2023-12-20T04:06:21;5.40;99.90
42907;DHT22;28552;51.146;6.576;2023-12-20T04:09:22;5.50;99.90
42907;DHT22;28552;51.146;6.576;2023-12-20T04:12:22;5.50;99.90
42907;DHT22;28552;51.146;6.576;2023-12-20T04:15:23;5.40;99.90
42907;DHT22;28552;51.146;6.576;2023-12-20T04:18:23;5.40;99.90
42907;DHT22;28552;51.146;6.576;2023-12-20T04:21:24;5.40;99.90
42907;DHT22;28552;51.146;6.576;2023-12-20T04:24:25;5.40;99.90
42907;DHT22;28552;51.146;6.576;2023-12-20T04:27:25;5.40;99.90
42907;DHT22;28552;51.146;6.576;2023-12-20T04:30:26;5.30;99.90
42907;DHT22;28552;51.146;6.576;2023-12-20T04:33:26;5.30;99.90
42907;DHT22;28552;51.146;6.576;2023-12-20T04:36:27;5.30;99.90
42907;DHT22;28552;51.146;6.576;2023-12-20T04:39:27;5.30;99.90
42907;DHT22;28552;51.146;6.576;2023-12-20T04:42:28;5.20;99.90
42907;DHT22;28552;51.146;6.576;2023-12-20T04:45:28;5.20;99.90
42907;DHT22;28552;51.146;6.576;2023-12-20T04:48:29;5.20;99.90
42907;DHT22;28552;51.146;6.576;2023-12-20T04:51:29;5.20;99.90
42907;DHT22;28552;51.146;6.576;2023-12-20T04:54:29;5.20;99.90
42907;DHT22;28552;51.146;6.576;2023-12-20T04:57:30;5.20;99.90
42907;DHT22;28552;51.146;6.576;2023-12-20T05:00:30;5.20;99.90
42907;DHT22;28552;51.146;6.576;2023-12-20T05:03:31;5.10;99.90
42907;DHT22;28552;51.146;6.576;2023-12-20T05:06:32;5.20;99.90
42907;DHT22;28552;51.146;6.576;2023-12-20T05:09:32;5.10;99.90
42907;DHT22;28552;51.146;6.576;2023-12-20T05:12:33;5.10;99.90
42907;DHT22;28552;51.146;6.576;2023-12-20T05:15:34;5.20;99.90
42907;DHT22;28552;51.146;6.576;2023-12-20T05:18:34;5.30;99.90
42907;DHT22;28552;51.146;6.576;2023-12-20T05:21:35;5.30;99.90
42907;DHT22;28552;51.146;6.576;2023-12-20T05:24:36;5.30;99.90
42907;DHT22;28552;51.146;6.576;2023-12-20T05:27:36;5.40;99.90
42907;DHT22;28552;51.146;6.576;2023-12-20T05:30:37;5.50;99.90
42907;DHT22;28552;51.146;6.576;2023-12-20T05:33:37;5.50;99.90
42907;DHT22;28552;51.146;6.576;2023-12-20T05:36:38;5.50;99.90
42907;DHT22;28552;51.146;6.576;2023-12-20T05:39:39;5.50;99.90
42907;DHT22;28552;51.146;6.576;2023-12-20T05:42:39;5.50;99.90
42907;DHT22;28552;51.146;6.576;2023-12-20T05:45:40;5.60;99.90
42907;DHT22;28552;51.146;6.576;2023-12-20T05:48:40;5.60;99.90
42907;DHT22;28552;51.146;6.576;2023-12-20T05:51:41;5.60;99.90
42907;DHT22;28552;51.146;6.576;2023-12-20T05:54:41;5.60;99.90
42907;DHT22;28552;51.146;6.576;2023-12-20T05:57:42;5.60;99.90
42907;DHT22;28552;51.146;6.576;2023-12-20T06:00:43;5.70;99.90
42907;DHT22;28552;51.146;6.576;2023-12-20T06:03:44;5.70;99.90
42907;DHT22;28552;51.146;6.576;2023-12-20T06:06:46;5.70;99.90
42907;DHT22;28552;51.146;6.576;2023-12-20T06:09:46;5.70;99.90
42907;DHT22;28552;51.146;6.576;2023-12-20T06:12:47;5.70;99.90
42907;DHT22;28552;51.146;6.576;2023-12-20T06:15:51;5.80;99.90
42907;DHT22;28552;51.146;6.576;2023-12-20T06:18:51;5.80;99.90
42907;DHT22;28552;51.146;6.576;2023-12-20T06:21:52;5.80;99.90
42907;DHT22;28552;51.146;6.576;2023-12-20T06:24:52;5.80;99.90
42907;DHT22;28552;51.146;6.576;2023-12-20T06:27:53;5.80;99.90
42907;DHT22;28552;51.146;6.576;2023-12-20T06:30:53;5.80;99.90
42907;DHT22;28552;51.146;6.576;2023-12-20T06:33:55;5.80;99.90
42907;DHT22;28552;51.146;6.576;2023-12-20T06:36:57;5.80;99.90
42907;DHT22;28552;51.146;6.576;2023-12-20T06:39:58;5.90;99.90
42907;DHT22;28552;51.146;6.576;2023-12-20T06:42:58;5.90;99.90
42907;DHT22;28552;51.146;6.576;2023-12-20T06:46:01;5.90;99.90
42907;DHT22;28552;51.146;6.576;2023-12-20T06:49:01;5.90;99.90
42907;DHT22;28552;51.146;6.576;2023-12-20T06:52:02;5.90;99.90
42907;DHT22;28552;51.146;6.576;2023-12-20T06:55:03;5.90;99.90
42907;DHT22;28552;51.146;6.576;2023-12-20T06:58:04;5.90;99.90
42907;DHT22;28552;51.146;6.576;2023-12-20T07:01:05;5.90;99.90
42907;DHT22;28552;51.146;6.576;2023-12-20T07:04:06;5.90;99.90
42907;DHT22;28552;51.146;6.576;2023-12-20T07:07:06;6.00;99.90
42907;DHT22;28552;51.146;6.576;2023-12-20T07:10:07;6.00;99.90
42907;DHT22;28552;51.146;6.576;2023-12-20T07:13:08;6.00;99.90
42907;DHT22;28552;51.146;6.576;2023-12-20T07:16:09;6.00;99.90
42907;DHT22;28552;51.146;6.576;2023-12-20T07:19:09;6.00;99.90
42907;DHT22;28552;51.146;6.576;2023-12-20T07:22:10;6.00;99.90
42907;DHT22;28552;51.146;6.576;2023-12-20T07:25:10;6.00;99.90
42907;DHT22;28552;51.146;6.576;2023-12-20T07:28:11;6.00;99.90
42907;DHT22;28552;51.146;6.576;2023-12-20T07:31:11;6.10;99.90
42907;DHT22;28552;51.146;6.576;2023-12-20T07:34:12;6.10;99.90
42907;DHT22;28552;51.146;6.576;2023-12-20T07:37:12;6.10;99.90
42907;DHT22;28552;51.146;6.576;2023-12-20T07:40:13;6.10;99.90
42907;DHT22;28552;51.146;6.576;2023-12-20T07:43:14;6.10;99.90
42907;DHT22;28552;51.146;6.576;2023-12-20T07:46:15;6.20;99.90
42907;DHT22;28552;51.146;6.576;2023-12-20T07:49:15;6.10;99.90
42907;DHT22;28552;51.146;6.576;2023-12-20T07:52:16;6.10;99.90
42907;DHT22;28552;51.146;6.576;2023-12-20T07:55:16;6.00;99.90
42907;DHT22;28552;51.146;6.576;2023-12-20T07:58:17;6.10;99.90
42907;DHT22;28552;51.146;6.576;2023-12-20T08:01:17;6.10;99.90
42907;DHT22;28552;51.146;6.576;2023-12-20T08:04:18;6.00;99.90
42907;DHT22;28552;51.146;6.576;2023-12-20T08:07:19;6.00;99.90
42907;DHT22;28552;51.146;6.576;2023-12-20T08:10:19;6.00;99.90
42907;DHT22;28552;51.146;6.576;2023-12-20T08:13:20;6.00;99.90
42907;DHT22;28552;51.146;6.576;2023-12-20T08:16:25;6.00;99.90
42907;DHT22;28552;51.146;6.576;2023-12-20T08:19:25;6.00;99.90
42907;DHT22;28552;51.146;6.576;2023-12-20T08:22:26;6.00;99.90
42907;DHT22;28552;51.146;6.576;2023-12-20T08:25:26;6.00;99.90
42907;DHT22;28552;51.146;6.576;2023-12-20T08:28:27;6.00;99.90
42907;DHT22;28552;51.146;6.576;2023-12-20T08:31:28;6.00;99.90
42907;DHT22;28552;51.146;6.576;2023-12-20T08:34:29;6.00;99.90
42907;DHT22;28552;51.146;6.576;2023-12-20T08:37:30;6.00;99.90
42907;DHT22;28552;51.146;6.576;2023-12-20T08:40:30;6.10;99.90
42907;DHT22;28552;51.146;6.576;2023-12-20T08:43:32;6.10;99.90
42907;DHT22;28552;51.146;6.576;2023-12-20T08:46:32;6.10;99.90
42907;DHT22;28552;51.146;6.576;2023-12-20T08:49:33;6.10;99.90
42907;DHT22;28552;51.146;6.576;2023-12-20T08:52:33;6.10;99.90
42907;DHT22;28552;51.146;6.576;2023-12-20T08:55:34;6.10;99.90
42907;DHT22;28552;51.146;6.576;2023-12-20T08:58:34;6.10;99.90
42907;DHT22;28552;51.146;6.576;2023-12-20T09:01:36;6.20;99.90
42907;DHT22;28552;51.146;6.576;2023-12-20T09:04:36;6.20;99.90
42907;DHT22;28552;51.146;6.576;2023-12-20T09:07:37;6.30;99.90
42907;DHT22;28552;51.146;6.576;2023-12-20T09:10:37;6.30;99.90
42907;DHT22;28552;51.146;6.576;2023-12-20T09:13:38;6.30;99.90
42907;DHT22;28552;51.146;6.576;2023-12-20T09:16:38;6.30;99.90
42907;DHT22;28552;51.146;6.576;2023-12-20T09:19:39;6.40;99.90
42907;DHT22;28552;51.146;6.576;2023-12-20T09:22:40;6.40;99.90
42907;DHT22;28552;51.146;6.576;2023-12-20T09:25:42;6.40;99.90
42907;DHT22;28552;51.146;6.576;2023-12-20T09:28:42;6.40;99.90
42907;DHT22;28552;51.146;6.576;2023-12-20T09:31:43;6.40;99.90
42907;DHT22;28552;51.146;6.576;2023-12-20T09:34:44;6.40;99.90
42907;DHT22;28552;51.146;6.576;2023-12-20T09:37:45;6.40;99.90
42907;DHT22;28552;51.146;6.576;2023-12-20T09:40:47;6.40;99.90
42907;DHT22;28552;51.146;6.576;2023-12-20T09:43:48;6.40;99.90
42907;DHT22;28552;51.146;6.576;2023-12-20T09:46:50;6.40;99.90
42907;DHT22;28552;51.146;6.576;2023-12-20T09:49:51;6.40;99.90
42907;DHT22;28552;51.146;6.576;2023-12-20T09:52:53;6.50;99.90
42907;DHT22;28552;51.146;6.576;2023-12-20T09:55:54;6.50;99.90
42907;DHT22;28552;51.146;6.576;2023-12-20T09:58:56;6.60;99.90
42907;DHT22;28552;51.146;6.576;2023-12-20T10:01:57;6.60;99.90
42907;DHT22;28552;51.146;6.576;2023-12-20T10:04:58;6.70;99.90
42907;DHT22;28552;51.146;6.576;2023-12-20T10:08:00;6.70;99.90
42907;DHT22;28552;51.146;6.576;2023-12-20T10:11:00;6.70;99.90
42907;DHT22;28552;51.146;6.576;2023-12-20T10:14:03;6.70;99.90
42907;DHT22;28552;51.146;6.576;2023-12-20T10:17:05;6.70;99.90
42907;DHT22;28552;51.146;6.576;2023-12-20T10:20:06;6.70;99.90
42907;DHT22;28552;51.146;6.576;2023-12-20T10:23:10;6.80;99.90
42907;DHT22;28552;51.146;6.576;2023-12-20T10:26:19;6.80;99.90
42907;DHT22;28552;51.146;6.576;2023-12-20T10:29:21;6.70;99.90
42907;DHT22;28552;51.146;6.576;2023-12-20T10:32:27;6.70;99.90
42907;DHT22;28552;51.146;6.576;2023-12-20T10:35:27;6.70;99.90
42907;DHT22;28552;51.146;6.576;2023-12-20T10:38:28;6.70;99.90
42907;DHT22;28552;51.146;6.576;2023-12-20T10:41:32;6.70;99.90
42907;DHT22;28552;51.146;6.576;2023-12-20T10:44:33;6.70;99.90
42907;DHT22;28552;51.146;6.576;2023-12-20T10:47:34;6.70;99.90
42907;DHT22;28552;51.146;6.576;2023-12-20T10:50:37;6.80;99.90
42907;DHT22;28552;51.146;6.576;2023-12-20T10:53:40;6.80;99.90
42907;DHT22;28552;51.146;6.576;2023-12-20T10:56:42;6.80;99.90
42907;DHT22;28552;51.146;6.576;2023-12-20T10:59:43;6.90;99.90
42907;DHT22;28552;51.146;6.576;2023-12-20T11:02:49;6.90;99.90
42907;DHT22;28552;51.146;6.576;2023-12-20T11:05:56;6.90;99.90
42907;DHT22;28552;51.146;6.576;2023-12-20T11:12:32;6.90;99.90
42907;DHT22;28552;51.146;6.576;2023-12-20T11:15:36;6.90;99.90
42907;DHT22;28552;51.146;6.576;2023-12-20T11:18:40;6.90;99.90
42907;DHT22;28552;51.146;6.576;2023-12-20T11:21:41;6.90;99.90
42907;DHT22;28552;51.146;6.576;2023-12-20T11:24:44;6.90;99.90
42907;DHT22;28552;51.146;6.576;2023-12-20T11:28:07;6.90;99.90
42907;DHT22;28552;51.146;6.576;2023-12-20T11:31:08;6.80;99.90
42907;DHT22;28552;51.146;6.576;2023-12-20T11:34:14;6.90;99.90
42907;DHT22;28552;51.146;6.576;2023-12-20T11:37:14;6.80;99.90
42907;DHT22;28552;51.146;6.576;2023-12-20T11:40:17;6.80;99.90
42907;DHT22;28552;51.146;6.576;2023-12-20T11:43:36;6.80;99.90
42907;DHT22;28552;51.146;6.576;2023-12-20T11:46:37;6.80;99.90
42907;DHT22;28552;51.146;6.576;2023-12-20T11:49:37;6.80;99.90
42907;DHT22;28552;51.146;6.576;2023-12-20T11:52:38;6.80;99.90
42907;DHT22;28552;51.146;6.576;2023-12-20T11:55:38;6.90;99.90
42907;DHT22;28552;51.146;6.576;2023-12-20T11:58:39;6.90;99.90
42907;DHT22;28552;51.146;6.576;2023-12-20T12:01:40;6.90;99.90
42907;DHT22;28552;51.146;6.576;2023-12-20T12:04:41;6.90;99.90
42907;DHT22;28552;51.146;6.576;2023-12-20T12:07:42;6.90;99.90
42907;DHT22;28552;51.146;6.576;2023-12-20T12:10:44;6.90;99.90
42907;DHT22;28552;51.146;6.576;2023-12-20T12:13:45;6.90;99.90
42907;DHT22;28552;51.146;6.576;2023-12-20T12:16:46;7.00;99.90
42907;DHT22;28552;51.146;6.576;2023-12-20T12:19:47;7.00;99.90
42907;DHT22;28552;51.146;6.576;2023-12-20T12:22:58;7.00;99.90
42907;DHT22;28552;51.146;6.576;2023-12-20T12:25:59;7.00;99.90
42907;DHT22;28552;51.146;6.576;2023-12-20T12:29:03;7.00;99.90
42907;DHT22;28552;51.146;6.576;2023-12-20T12:32:08;7.00;99.90
42907;DHT22;28552;51.146;6.576;2023-12-20T12:35:09;6.90;99.90
42907;DHT22;28552;51.146;6.576;2023-12-20T12:38:11;6.90;99.90
42907;DHT22;28552;51.146;6.576;2023-12-20T12:41:13;6.90;99.90
42907;DHT22;28552;51.146;6.576;2023-12-20T12:44:13;6.90;99.90
42907;DHT22;28552;51.146;6.576;2023-12-20T12:47:14;6.90;99.90
42907;DHT22;28552;51.146;6.576;2023-12-20T12:50:14;7.00;99.90
42907;DHT22;28552;51.146;6.576;2023-12-20T12:53:15;7.10;99.90
42907;DHT22;28552;51.146;6.576;2023-12-20T12:56:16;7.20;99.90
42907;DHT22;28552;51.146;6.576;2023-12-20T12:59:17;7.30;99.90
42907;DHT22;28552;51.146;6.576;2023-12-20T13:02:17;7.40;99.90
42907;DHT22;28552;51.146;6.576;2023-12-20T13:05:18;7.30;99.90
42907;DHT22;28552;51.146;6.576;2023-12-20T13:08:19;7.30;99.90
42907;DHT22;28552;51.146;6.576;2023-12-20T13:11:19;7.30;99.90
42907;DHT22;28552;51.146;6.576;2023-12-20T13:14:20;7.20;99.90
42907;DHT22;28552;51.146;6.576;2023-12-20T13:17:20;7.20;99.90
42907;DHT22;28552;51.146;6.576;2023-12-20T13:20:21;7.20;99.90
42907;DHT22;28552;51.146;6.576;2023-12-20T13:23:22;7.20;99.90
42907;DHT22;28552;51.146;6.576;2023-12-20T13:26:23;7.20;99.90
42907;DHT22;28552;51.146;6.576;2023-12-20T13:29:24;7.20;99.90
42907;DHT22;28552;51.146;6.576;2023-12-20T13:32:27;7.20;99.90
42907;DHT22;28552;51.146;6.576;2023-12-20T13:35:28;7.20;99.90
42907;DHT22;28552;51.146;6.576;2023-12-20T13:38:28;7.20;99.90
42907;DHT22;28552;51.146;6.576;2023-12-20T13:41:29;7.20;99.90
42907;DHT22;28552;51.146;6.576;2023-12-20T13:44:30;7.20;99.90
42907;DHT22;28552;51.146;6.576;2023-12-20T13:47:32;7.20;99.90
42907;DHT22;28552;51.146;6.576;2023-12-20T13:50:32;7.20;99.90
42907;DHT22;28552;51.146;6.576;2023-12-20T13:53:33;7.20;99.90
42907;DHT22;28552;51.146;6.576;2023-12-20T13:56:34;7.20;99.90
42907;DHT22;28552;51.146;6.576;2023-12-20T13:59:34;7.20;99.90
42907;DHT22;28552;51.146;6.576;2023-12-20T14:02:35;7.10;99.90
42907;DHT22;28552;51.146;6.576;2023-12-20T14:05:36;7.20;99.90
42907;DHT22;28552;51.146;6.576;2023-12-20T14:08:37;7.20;99.90
42907;DHT22;28552;51.146;6.576;2023-12-20T14:11:38;7.20;99.90
42907;DHT22;28552;51.146;6.576;2023-12-20T14:14:41;7.20;99.90
42907;DHT22;28552;51.146;6.576;2023-12-20T14:17:42;7.20;99.90
42907;DHT22;28552;51.146;6.576;2023-12-20T14:20:42;7.20;99.90
42907;DHT22;28552;51.146;6.576;2023-12-20T14:23:43;7.30;99.90
42907;DHT22;28552;51.146;6.576;2023-12-20T14:26:43;7.30;99.90
42907;DHT22;28552;51.146;6.576;2023-12-20T14:29:44;7.30;99.90
42907;DHT22;28552;51.146;6.576;2023-12-20T14:32:44;7.30;99.90
42907;DHT22;28552;51.146;6.576;2023-12-20T14:35:45;7.40;99.90
42907;DHT22;28552;51.146;6.576;2023-12-20T14:38:46;7.40;99.90
42907;DHT22;28552;51.146;6.576;2023-12-20T14:41:47;7.40;99.90
42907;DHT22;28552;51.146;6.576;2023-12-20T14:44:48;7.40;99.90
42907;DHT22;28552;51.146;6.576;2023-12-20T14:47:48;7.50;99.90
42907;DHT22;28552;51.146;6.576;2023-12-20T14:50:49;7.50;99.90
42907;DHT22;28552;51.146;6.576;2023-12-20T14:53:50;7.50;99.90
42907;DHT22;28552;51.146;6.576;2023-12-20T14:56:51;7.50;99.90
42907;DHT22;28552;51.146;6.576;2023-12-20T14:59:52;7.50;99.90
42907;DHT22;28552;51.146;6.576;2023-12-20T15:02:52;7.50;99.90
42907;DHT22;28552;51.146;6.576;2023-12-20T15:05:54;7.50;99.90
42907;DHT22;28552;51.146;6.576;2023-12-20T15:08:55;7.50;99.90
42907;DHT22;28552;51.146;6.576;2023-12-20T15:11:55;7.40;99.90
42907;DHT22;28552;51.146;6.576;2023-12-20T15:14:56;7.40;99.90
42907;DHT22;28552;51.146;6.576;2023-12-20T15:17:56;7.40;99.90
42907;DHT22;28552;51.146;6.576;2023-12-20T15:20:57;7.50;99.90
42907;DHT22;28552;51.146;6.576;2023-12-20T15:23:58;7.40;99.90
42907;DHT22;28552;51.146;6.576;2023-12-20T15:27:06;7.50;99.90
42907;DHT22;28552;51.146;6.576;2023-12-20T15:30:07;7.40;99.90
42907;DHT22;28552;51.146;6.576;2023-12-20T15:33:09;7.40;99.90
42907;DHT22;28552;51.146;6.576;2023-12-20T15:36:10;7.40;99.90
42907;DHT22;28552;51.146;6.576;2023-12-20T15:39:10;7.40;99.90
42907;DHT22;28552;51.146;6.576;2023-12-20T15:42:14;7.40;99.90
42907;DHT22;28552;51.146;6.576;2023-12-20T15:45:14;7.40;99.90
42907;DHT22;28552;51.146;6.576;2023-12-20T15:48:15;7.40;99.90
42907;DHT22;28552;51.146;6.576;2023-12-20T15:51:21;7.30;99.90
42907;DHT22;28552;51.146;6.576;2023-12-20T15:54:22;7.30;99.90
42907;DHT22;28552;51.146;6.576;2023-12-20T15:57:22;7.30;99.90
42907;DHT22;28552;51.146;6.576;2023-12-20T16:00:23;7.30;99.90
42907;DHT22;28552;51.146;6.576;2023-12-20T16:03:23;7.30;99.90
42907;DHT22;28552;51.146;6.576;2023-12-20T16:06:24;7.30;99.90
42907;DHT22;28552;51.146;6.576;2023-12-20T16:09:24;7.30;99.90
42907;DHT22;28552;51.146;6.576;2023-12-20T16:12:25;7.30;99.90
42907;DHT22;28552;51.146;6.576;2023-12-20T16:15:25;7.30;99.90
42907;DHT22;28552;51.146;6.576;2023-12-20T16:18:26;7.30;99.90
42907;DHT22;28552;51.146;6.576;2023-12-20T16:21:28;7.30;99.90
42907;DHT22;28552;51.146;6.576;2023-12-20T16:24:29;7.30;99.90
42907;DHT22;28552;51.146;6.576;2023-12-20T16:27:31;7.40;99.90
42907;DHT22;28552;51.146;6.576;2023-12-20T16:30:32;7.40;99.90
42907;DHT22;28552;51.146;6.576;2023-12-20T16:33:33;7.40;99.90
42907;DHT22;28552;51.146;6.576;2023-12-20T16:39:49;7.40;99.90
42907;DHT22;28552;51.146;6.576;2023-12-20T16:42:50;7.40;99.90
42907;DHT22;28552;51.146;6.576;2023-12-20T16:45:51;7.40;99.90
42907;DHT22;28552;51.146;6.576;2023-12-20T16:48:52;7.40;99.90
42907;DHT22;28552;51.146;6.576;2023-12-20T16:51:52;7.40;99.90
42907;DHT22;28552;51.146;6.576;2023-12-20T16:54:53;7.40;99.90
42907;DHT22;28552;51.146;6.576;2023-12-20T16:57:53;7.40;99.90
42907;DHT22;28552;51.146;6.576;2023-12-20T17:00:54;7.40;99.90
42907;DHT22;28552;51.146;6.576;2023-12-20T17:03:54;7.40;99.90
42907;DHT22;28552;51.146;6.576;2023-12-20T17:06:55;7.40;99.90
42907;DHT22;28552;51.146;6.576;2023-12-20T17:09:56;7.30;99.90
42907;DHT22;28552;51.146;6.576;2023-12-20T17:12:56;7.40;99.90
42907;DHT22;28552;51.146;6.576;2023-12-20T17:15:57;7.40;99.90
42907;DHT22;28552;51.146;6.576;2023-12-20T17:18:57;7.50;99.90
42907;DHT22;28552;51.146;6.576;2023-12-20T17:21:58;7.50;99.90
42907;DHT22;28552;51.146;6.576;2023-12-20T17:24:58;7.50;99.90
42907;DHT22;28552;51.146;6.576;2023-12-20T17:27:59;7.50;99.90
42907;DHT22;28552;51.146;6.576;2023-12-20T17:30:59;7.50;99.90
42907;DHT22;28552;51.146;6.576;2023-12-20T17:34:00;7.50;99.90
42907;DHT22;28552;51.146;6.576;2023-12-20T17:37:01;7.50;99.90
42907;DHT22;28552;51.146;6.576;2023-12-20T17:40:02;7.50;99.90
42907;DHT22;28552;51.146;6.576;2023-12-20T17:43:03;7.60;99.90
42907;DHT22;28552;51.146;6.576;2023-12-20T17:46:03;7.60;99.90
42907;DHT22;28552;51.146;6.576;2023-12-20T17:49:04;7.60;99.90
42907;DHT22;28552;51.146;6.576;2023-12-20T17:52:05;7.60;99.90
42907;DHT22;28552;51.146;6.576;2023-12-20T17:55:06;7.70;99.90
42907;DHT22;28552;51.146;6.576;2023-12-20T17:58:07;7.70;99.90
42907;DHT22;28552;51.146;6.576;2023-12-20T18:01:08;7.70;99.90
42907;DHT22;28552;51.146;6.576;2023-12-20T18:04:08;7.80;99.90
42907;DHT22;28552;51.146;6.576;2023-12-20T18:07:10;7.80;99.90
42907;DHT22;28552;51.146;6.576;2023-12-20T18:10:10;7.80;99.90
42907;DHT22;28552;51.146;6.576;2023-12-20T18:13:12;7.80;99.90
42907;DHT22;28552;51.146;6.576;2023-12-20T18:16:12;7.90;99.90
42907;DHT22;28552;51.146;6.576;2023-12-20T18:19:13;7.90;99.90
42907;DHT22;28552;51.146;6.576;2023-12-20T18:22:13;7.90;99.90
42907;DHT22;28552;51.146;6.576;2023-12-20T18:25:14;8.00;99.90
42907;DHT22;28552;51.146;6.576;2023-12-20T18:28:15;8.00;99.90
42907;DHT22;28552;51.146;6.576;2023-12-20T18:31:15;8.10;99.90
42907;DHT22;28552;51.146;6.576;2023-12-20T18:34:16;8.10;99.90
42907;DHT22;28552;51.146;6.576;2023-12-20T18:37:16;8.10;99.90
42907;DHT22;28552;51.146;6.576;2023-12-20T18:40:17;8.10;99.90
42907;DHT22;28552;51.146;6.576;2023-12-20T18:43:18;8.10;99.90
42907;DHT22;28552;51.146;6.576;2023-12-20T18:46:21;8.10;99.90
42907;DHT22;28552;51.146;6.576;2023-12-20T18:49:22;8.10;99.90
42907;DHT22;28552;51.146;6.576;2023-12-20T18:52:23;8.20;99.90
42907;DHT22;28552;51.146;6.576;2023-12-20T18:55:24;8.20;99.90
42907;DHT22;28552;51.146;6.576;2023-12-20T18:58:24;8.20;99.90
42907;DHT22;28552;51.146;6.576;2023-12-20T19:01:30;8.20;99.90
42907;DHT22;28552;51.146;6.576;2023-12-20T19:04:30;8.20;99.90
42907;DHT22;28552;51.146;6.576;2023-12-20T19:07:31;8.20;99.90
42907;DHT22;28552;51.146;6.576;2023-12-20T19:10:31;8.20;99.90
42907;DHT22;28552;51.146;6.576;2023-12-20T19:13:32;8.20;99.90
42907;DHT22;28552;51.146;6.576;2023-12-20T19:16:32;8.20;99.90
42907;DHT22;28552;51.146;6.576;2023-12-20T19:19:33;8.20;99.90
42907;DHT22;28552;51.146;6.576;2023-12-20T19:22:34;8.20;99.90
42907;DHT22;28552;51.146;6.576;2023-12-20T19:25:35;8.30;99.90
42907;DHT22;28552;51.146;6.576;2023-12-20T19:28:35;8.30;99.90